sensor_id;sensor_type;location;lat;lon;timestamp;temperature;humidity
41720;DHT22;27405;53.316;-6.294;2024-02-21T00:01:44;9.30;99.90
41720;DHT22;27405;53.316;-6.294;2024-02-21T00:04:10;9.30;99.90
41720;DHT22;27405;53.316;-6.294;2024-02-21T00:06:36;9.40;99.90
41720;DHT22;27405;53.316;-6.294;2024-02-21T00:09:01;9.50;99.90
41720;DHT22;27405;53.316;-6.294;2024-02-21T00:11:28;9.50;99.90
41720;DHT22;27405;53.316;-6.294;2024-02-21T00:13:54;9.50;99.90
41720;DHT22;27405;53.316;-6.294;2024-02-21T00:16:19;9.50;99.90
41720;DHT22;27405;53.316;-6.294;2024-02-21T00:18:45;9.60;99.90
41720;DHT22;27405;53.316;-6.294;2024-02-21T00:21:11;9.60;99.90
41720;DHT22;27405;53.316;-6.294;2024-02-21T00:23:44;9.60;99.90
41720;DHT22;27405;53.316;-6.294;2024-02-21T00:26:14;9.60;99.90
41720;DHT22;27405;53.316;-6.294;2024-02-21T00:28:39;9.60;99.90
41720;DHT22;27405;53.316;-6.294;2024-02-21T00:31:05;9.60;99.90
41720;DHT22;27405;53.316;-6.294;2024-02-21T00:33:31;9.60;99.90
41720;DHT22;27405;53.316;-6.294;2024-02-21T00:35:56;9.60;99.90
41720;DHT22;27405;53.316;-6.294;2024-02-21T00:38:22;9.60;99.90
41720;DHT22;27405;53.316;-6.294;2024-02-21T00:40:47;9.60;99.90
41720;DHT22;27405;53.316;-6.294;2024-02-21T00:43:13;9.60;99.90
41720;DHT22;27405;53.316;-6.294;2024-02-21T00:45:39;9.70;99.90
41720;DHT22;27405;53.316;-6.294;2024-02-21T00:48:05;9.70;99.90
41720;DHT22;27405;53.316;-6.294;2024-02-21T00:50:31;9.70;99.90
41720;DHT22;27405;53.316;-6.294;2024-02-21T00:52:56;9.80;99.90
41720;DHT22;27405;53.316;-6.294;2024-02-21T00:55:22;9.80;99.90
41720;DHT22;27405;53.316;-6.294;2024-02-21T00:57:47;9.80;99.90
41720;DHT22;27405;53.316;-6.294;2024-02-21T01:00:13;9.90;99.90
41720;DHT22;27405;53.316;-6.294;2024-02-21T01:02:39;9.90;99.90
41720;DHT22;27405;53.316;-6.294;2024-02-21T01:05:05;9.90;99.90
41720;DHT22;27405;53.316;-6.294;2024-02-21T01:07:31;10.00;99.90
41720;DHT22;27405;53.316;-6.294;2024-02-21T01:09:57;10.00;99.90
41720;DHT22;27405;53.316;-6.294;2024-02-21T01:12:22;10.00;99.90
41720;DHT22;27405;53.316;-6.294;2024-02-21T01:14:48;10.00;99.90
41720;DHT22;27405;53.316;-6.294;2024-02-21T01:17:14;10.00;99.90
41720;DHT22;27405;53.316;-6.294;2024-02-21T01:19:40;10.10;99.90
41720;DHT22;27405;53.316;-6.294;2024-02-21T01:22:06;10.10;99.90
41720;DHT22;27405;53.316;-6.294;2024-02-21T01:24:31;10.10;99.90
41720;DHT22;27405;53.316;-6.294;2024-02-21T01:26:57;10.10;99.90
41720;DHT22;27405;53.316;-6.294;2024-02-21T01:29:23;10.10;99.90
41720;DHT22;27405;53.316;-6.294;2024-02-21T01:31:48;10.10;99.90
41720;DHT22;27405;53.316;-6.294;2024-02-21T01:34:14;10.00;99.90
41720;DHT22;27405;53.316;-6.294;2024-02-21T01:36:39;10.00;99.90
41720;DHT22;27405;53.316;-6.294;2024-02-21T01:39:06;10.00;99.90
41720;DHT22;27405;53.316;-6.294;2024-02-21T01:41:32;10.00;99.90
41720;DHT22;27405;53.316;-6.294;2024-02-21T01:43:58;10.00;99.90
41720;DHT22;27405;53.316;-6.294;2024-02-21T01:46:24;10.00;99.90
41720;DHT22;27405;53.316;-6.294;2024-02-21T01:48:55;10.00;99.90
41720;DHT22;27405;53.316;-6.294;2024-02-21T01:51:21;10.00;99.90
41720;DHT22;27405;53.316;-6.294;2024-02-21T01:53:46;10.00;99.90
41720;DHT22;27405;53.316;-6.294;2024-02-21T01:56:13;10.00;99.90
41720;DHT22;27405;53.316;-6.294;2024-02-21T01:58:40;10.00;99.90
41720;DHT22;27405;53.316;-6.294;2024-02-21T02:01:07;10.00;99.90
41720;DHT22;27405;53.316;-6.294;2024-02-21T02:03:33;10.00;99.90
41720;DHT22;27405;53.316;-6.294;2024-02-21T02:06:00;9.90;99.90
41720;DHT22;27405;53.316;-6.294;2024-02-21T02:08:26;10.00;99.90
41720;DHT22;27405;53.316;-6.294;2024-02-21T02:10:52;10.00;99.90
41720;DHT22;27405;53.316;-6.294;2024-02-21T02:13:18;9.90;99.90
41720;DHT22;27405;53.316;-6.294;2024-02-21T02:15:47;9.90;99.90
41720;DHT22;27405;53.316;-6.294;2024-02-21T02:18:14;9.90;99.90
41720;DHT22;27405;53.316;-6.294;2024-02-21T02:20:40;9.90;99.90
41720;DHT22;27405;53.316;-6.294;2024-02-21T02:23:17;9.80;99.90
41720;DHT22;27405;53.316;-6.294;2024-02-21T02:25:42;9.80;99.90
41720;DHT22;27405;53.316;-6.294;2024-02-21T02:28:09;9.90;99.90
41720;DHT22;27405;53.316;-6.294;2024-02-21T02:30:35;9.80;99.90
41720;DHT22;27405;53.316;-6.294;2024-02-21T02:33:05;9.90;99.90
41720;DHT22;27405;53.316;-6.294;2024-02-21T02:35:32;9.80;99.90
41720;DHT22;27405;53.316;-6.294;2024-02-21T02:37:58;9.90;99.90
41720;DHT22;27405;53.316;-6.294;2024-02-21T02:40:24;9.90;99.90
41720;DHT22;27405;53.316;-6.294;2024-02-21T02:42:50;10.00;99.90
41720;DHT22;27405;53.316;-6.294;2024-02-21T02:45:17;10.10;99.90
41720;DHT22;27405;53.316;-6.294;2024-02-21T02:47:44;10.20;99.90
41720;DHT22;27405;53.316;-6.294;2024-02-21T02:50:11;10.30;99.90
41720;DHT22;27405;53.316;-6.294;2024-02-21T02:52:37;10.50;99.90
41720;DHT22;27405;53.316;-6.294;2024-02-21T02:55:03;10.50;99.90
41720;DHT22;27405;53.316;-6.294;2024-02-21T02:57:29;10.60;99.90
41720;DHT22;27405;53.316;-6.294;2024-02-21T02:59:55;10.60;99.90
41720;DHT22;27405;53.316;-6.294;2024-02-21T03:02:20;10.60;99.90
41720;DHT22;27405;53.316;-6.294;2024-02-21T03:04:46;10.70;99.90
41720;DHT22;27405;53.316;-6.294;2024-02-21T03:07:11;10.70;99.90
41720;DHT22;27405;53.316;-6.294;2024-02-21T03:09:38;10.70;99.90
41720;DHT22;27405;53.316;-6.294;2024-02-21T03:12:05;10.70;99.90
41720;DHT22;27405;53.316;-6.294;2024-02-21T03:14:31;10.60;99.90
41720;DHT22;27405;53.316;-6.294;2024-02-21T03:16:58;10.70;99.90
41720;DHT22;27405;53.316;-6.294;2024-02-21T03:19:24;10.60;99.90
41720;DHT22;27405;53.316;-6.294;2024-02-21T03:21:50;10.60;99.90
41720;DHT22;27405;53.316;-6.294;2024-02-21T03:24:16;10.60;99.90
41720;DHT22;27405;53.316;-6.294;2024-02-21T03:26:42;10.60;99.90
41720;DHT22;27405;53.316;-6.294;2024-02-21T03:29:08;10.60;99.90
41720;DHT22;27405;53.316;-6.294;2024-02-21T03:31:37;10.60;99.90
41720;DHT22;27405;53.316;-6.294;2024-02-21T03:34:03;10.60;99.90
41720;DHT22;27405;53.316;-6.294;2024-02-21T03:36:29;10.60;99.90
41720;DHT22;27405;53.316;-6.294;2024-02-21T03:38:55;10.60;99.90
41720;DHT22;27405;53.316;-6.294;2024-02-21T03:41:21;10.60;99.90
41720;DHT22;27405;53.316;-6.294;2024-02-21T03:43:47;10.60;99.90
41720;DHT22;27405;53.316;-6.294;2024-02-21T03:46:12;10.60;99.90
41720;DHT22;27405;53.316;-6.294;2024-02-21T03:48:38;10.60;99.90
41720;DHT22;27405;53.316;-6.294;2024-02-21T03:51:04;10.50;99.90
41720;DHT22;27405;53.316;-6.294;2024-02-21T03:53:30;10.50;99.90
41720;DHT22;27405;53.316;-6.294;2024-02-21T03:55:56;10.50;99.90
41720;DHT22;27405;53.316;-6.294;2024-02-21T03:58:22;10.50;99.90
41720;DHT22;27405;53.316;-6.294;2024-02-21T04:00:48;10.50;99.90
41720;DHT22;27405;53.316;-6.294;2024-02-21T04:03:13;10.50;99.90
41720;DHT22;27405;53.316;-6.294;2024-02-21T04:05:39;10.40;99.90
41720;DHT22;27405;53.316;-6.294;2024-02-21T04:08:05;10.50;99.90
41720;DHT22;27405;53.316;-6.294;2024-02-21T04:10:31;10.40;99.90
41720;DHT22;27405;53.316;-6.294;2024-02-21T04:12:57;10.40;99.90
41720;DHT22;27405;53.316;-6.294;2024-02-21T04:15:23;10.40;99.90
41720;DHT22;27405;53.316;-6.294;2024-02-21T04:17:48;10.40;99.90
41720;DHT22;27405;53.316;-6.294;2024-02-21T04:20:16;10.40;99.90
41720;DHT22;27405;53.316;-6.294;2024-02-21T04:22:45;10.40;99.90
41720;DHT22;27405;53.316;-6.294;2024-02-21T04:25:11;10.40;99.90
41720;DHT22;27405;53.316;-6.294;2024-02-21T04:27:38;10.40;99.90
41720;DHT22;27405;53.316;-6.294;2024-02-21T04:30:04;10.40;99.90
41720;DHT22;27405;53.316;-6.294;2024-02-21T04:32:30;10.40;99.90
41720;DHT22;27405;53.316;-6.294;2024-02-21T04:34:56;10.40;99.90
41720;DHT22;27405;53.316;-6.294;2024-02-21T04:37:21;10.40;99.90
41720;DHT22;27405;53.316;-6.294;2024-02-21T04:39:48;10.50;99.90
41720;DHT22;27405;53.316;-6.294;2024-02-21T04:42:14;10.60;99.90
41720;DHT22;27405;53.316;-6.294;2024-02-21T04:44:40;10.60;99.90
41720;DHT22;27405;53.316;-6.294;2024-02-21T04:47:06;10.60;99.90
41720;DHT22;27405;53.316;-6.294;2024-02-21T04:49:32;10.70;99.90
41720;DHT22;27405;53.316;-6.294;2024-02-21T04:51:58;10.70;99.90
41720;DHT22;27405;53.316;-6.294;2024-02-21T04:54:23;10.70;99.90
41720;DHT22;27405;53.316;-6.294;2024-02-21T04:56:49;10.70;99.90
41720;DHT22;27405;53.316;-6.294;2024-02-21T04:59:15;10.70;99.90
41720;DHT22;27405;53.316;-6.294;2024-02-21T05:01:41;10.70;99.90
41720;DHT22;27405;53.316;-6.294;2024-02-21T05:04:06;10.70;99.90
41720;DHT22;27405;53.316;-6.294;2024-02-21T05:06:38;10.80;99.90
41720;DHT22;27405;53.316;-6.294;2024-02-21T05:09:04;10.80;99.90
41720;DHT22;27405;53.316;-6.294;2024-02-21T05:11:31;10.80;99.90
41720;DHT22;27405;53.316;-6.294;2024-02-21T05:13:56;10.90;99.90
41720;DHT22;27405;53.316;-6.294;2024-02-21T05:16:22;11.00;99.90
41720;DHT22;27405;53.316;-6.294;2024-02-21T05:18:47;11.00;99.90
41720;DHT22;27405;53.316;-6.294;2024-02-21T05:21:13;11.10;99.90
41720;DHT22;27405;53.316;-6.294;2024-02-21T05:23:39;11.20;99.90
41720;DHT22;27405;53.316;-6.294;2024-02-21T05:26:05;11.30;99.90
41720;DHT22;27405;53.316;-6.294;2024-02-21T05:28:31;11.30;99.90
41720;DHT22;27405;53.316;-6.294;2024-02-21T05:30:57;11.40;99.90
41720;DHT22;27405;53.316;-6.294;2024-02-21T05:33:22;11.50;99.90
41720;DHT22;27405;53.316;-6.294;2024-02-21T05:35:48;11.50;99.90
41720;DHT22;27405;53.316;-6.294;2024-02-21T05:38:14;11.50;99.90
41720;DHT22;27405;53.316;-6.294;2024-02-21T05:40:41;11.60;99.90
41720;DHT22;27405;53.316;-6.294;2024-02-21T05:43:09;11.60;99.90
41720;DHT22;27405;53.316;-6.294;2024-02-21T05:45:36;11.70;99.90
41720;DHT22;27405;53.316;-6.294;2024-02-21T05:48:02;11.70;99.90
41720;DHT22;27405;53.316;-6.294;2024-02-21T05:50:28;11.70;99.90
41720;DHT22;27405;53.316;-6.294;2024-02-21T05:52:54;11.80;99.90
41720;DHT22;27405;53.316;-6.294;2024-02-21T05:55:21;11.80;99.90
41720;DHT22;27405;53.316;-6.294;2024-02-21T05:57:47;11.80;99.90
41720;DHT22;27405;53.316;-6.294;2024-02-21T06:00:13;11.90;99.90
41720;DHT22;27405;53.316;-6.294;2024-02-21T06:02:39;11.80;99.90
41720;DHT22;27405;53.316;-6.294;2024-02-21T06:05:06;11.90;99.90
41720;DHT22;27405;53.316;-6.294;2024-02-21T06:07:33;11.90;99.90
41720;DHT22;27405;53.316;-6.294;2024-02-21T06:09:59;11.90;99.90
41720;DHT22;27405;53.316;-6.294;2024-02-21T06:12:25;12.00;99.90
41720;DHT22;27405;53.316;-6.294;2024-02-21T06:14:51;12.00;99.90
41720;DHT22;27405;53.316;-6.294;2024-02-21T06:17:17;12.00;99.90
41720;DHT22;27405;53.316;-6.294;2024-02-21T06:19:43;12.00;99.90
41720;DHT22;27405;53.316;-6.294;2024-02-21T06:22:10;12.00;99.90
41720;DHT22;27405;53.316;-6.294;2024-02-21T06:24:36;12.00;99.90
41720;DHT22;27405;53.316;-6.294;2024-02-21T06:27:03;12.10;99.90
41720;DHT22;27405;53.316;-6.294;2024-02-21T06:29:32;12.10;99.90
41720;DHT22;27405;53.316;-6.294;2024-02-21T06:31:58;12.10;99.90
41720;DHT22;27405;53.316;-6.294;2024-02-21T06:34:23;12.10;99.90
41720;DHT22;27405;53.316;-6.294;2024-02-21T06:36:50;12.10;99.90
41720;DHT22;27405;53.316;-6.294;2024-02-21T06:39:16;12.20;99.90
41720;DHT22;27405;53.316;-6.294;2024-02-21T06:41:41;12.20;99.90
41720;DHT22;27405;53.316;-6.294;2024-02-21T06:44:07;12.20;99.90
41720;DHT22;27405;53.316;-6.294;2024-02-21T06:46:33;12.20;99.90
41720;DHT22;27405;53.316;-6.294;2024-02-21T06:48:59;12.20;99.90
41720;DHT22;27405;53.316;-6.294;2024-02-21T06:51:29;12.20;99.90
41720;DHT22;27405;53.316;-6.294;2024-02-21T06:53:55;12.20;99.90
41720;DHT22;27405;53.316;-6.294;2024-02-21T06:56:22;12.30;99.90
41720;DHT22;27405;53.316;-6.294;2024-02-21T06:58:52;12.30;99.90
41720;DHT22;27405;53.316;-6.294;2024-02-21T07:01:18;12.30;99.90
41720;DHT22;27405;53.316;-6.294;2024-02-21T07:03:43;12.40;99.90
41720;DHT22;27405;53.316;-6.294;2024-02-21T07:06:09;12.40;99.90
41720;DHT22;27405;53.316;-6.294;2024-02-21T07:08:34;12.40;99.90
41720;DHT22;27405;53.316;-6.294;2024-02-21T07:11:00;12.40;99.90
41720;DHT22;27405;53.316;-6.294;2024-02-21T07:13:26;12.40;99.90
41720;DHT22;27405;53.316;-6.294;2024-02-21T07:15:51;12.40;99.90
41720;DHT22;27405;53.316;-6.294;2024-02-21T07:18:17;12.40;99.90
41720;DHT22;27405;53.316;-6.294;2024-02-21T07:20:42;12.40;99.90
41720;DHT22;27405;53.316;-6.294;2024-02-21T07:23:08;12.40;99.90
41720;DHT22;27405;53.316;-6.294;2024-02-21T07:25:34;12.50;99.90
41720;DHT22;27405;53.316;-6.294;2024-02-21T07:28:00;12.50;99.90
41720;DHT22;27405;53.316;-6.294;2024-02-21T07:30:25;12.50;99.90
41720;DHT22;27405;53.316;-6.294;2024-02-21T07:32:51;12.50;99.90
41720;DHT22;27405;53.316;-6.294;2024-02-21T07:35:20;12.50;99.90
41720;DHT22;27405;53.316;-6.294;2024-02-21T07:37:46;12.50;99.90
41720;DHT22;27405;53.316;-6.294;2024-02-21T07:40:16;12.50;99.90
41720;DHT22;27405;53.316;-6.294;2024-02-21T07:42:42;12.60;99.90
41720;DHT22;27405;53.316;-6.294;2024-02-21T07:45:08;12.60;99.90
41720;DHT22;27405;53.316;-6.294;2024-02-21T07:47:34;12.60;99.90
41720;DHT22;27405;53.316;-6.294;2024-02-21T07:50:02;12.60;99.90
41720;DHT22;27405;53.316;-6.294;2024-02-21T07:52:28;12.60;99.90
41720;DHT22;27405;53.316;-6.294;2024-02-21T07:54:53;12.50;99.90
41720;DHT22;27405;53.316;-6.294;2024-02-21T07:57:19;12.50;99.90
41720;DHT22;27405;53.316;-6.294;2024-02-21T07:59:45;12.50;99.90
41720;DHT22;27405;53.316;-6.294;2024-02-21T08:02:14;12.50;99.90
41720;DHT22;27405;53.316;-6.294;2024-02-21T08:04:40;12.50;99.90
41720;DHT22;27405;53.316;-6.294;2024-02-21T08:07:06;12.50;99.90
41720;DHT22;27405;53.316;-6.294;2024-02-21T08:09:31;12.50;99.90
41720;DHT22;27405;53.316;-6.294;2024-02-21T08:11:57;12.50;99.90
41720;DHT22;27405;53.316;-6.294;2024-02-21T08:14:23;12.50;99.90
41720;DHT22;27405;53.316;-6.294;2024-02-21T08:16:51;12.60;99.90
41720;DHT22;27405;53.316;-6.294;2024-02-21T08:19:19;12.60;99.90
41720;DHT22;27405;53.316;-6.294;2024-02-21T08:21:44;12.60;99.90
41720;DHT22;27405;53.316;-6.294;2024-02-21T08:24:15;12.60;99.90
41720;DHT22;27405;53.316;-6.294;2024-02-21T08:26:41;12.70;99.90
41720;DHT22;27405;53.316;-6.294;2024-02-21T08:29:07;12.70;99.90
41720;DHT22;27405;53.316;-6.294;2024-02-21T08:31:33;12.70;99.90
41720;DHT22;27405;53.316;-6.294;2024-02-21T08:34:00;12.70;99.90
41720;DHT22;27405;53.316;-6.294;2024-02-21T08:36:36;12.70;99.90
41720;DHT22;27405;53.316;-6.294;2024-02-21T08:39:02;12.80;99.90
41720;DHT22;27405;53.316;-6.294;2024-02-21T08:41:31;12.80;99.90
41720;DHT22;27405;53.316;-6.294;2024-02-21T08:43:57;12.80;99.90
41720;DHT22;27405;53.316;-6.294;2024-02-21T08:46:23;12.80;99.90
41720;DHT22;27405;53.316;-6.294;2024-02-21T08:48:50;12.80;99.90
41720;DHT22;27405;53.316;-6.294;2024-02-21T08:51:17;12.90;99.90
41720;DHT22;27405;53.316;-6.294;2024-02-21T08:53:44;12.90;99.90
41720;DHT22;27405;53.316;-6.294;2024-02-21T08:56:10;13.00;99.90
41720;DHT22;27405;53.316;-6.294;2024-02-21T08:58:39;13.00;99.90
41720;DHT22;27405;53.316;-6.294;2024-02-21T09:01:06;13.00;99.90
41720;DHT22;27405;53.316;-6.294;2024-02-21T09:03:38;13.00;99.90
41720;DHT22;27405;53.316;-6.294;2024-02-21T09:06:07;13.00;99.90
41720;DHT22;27405;53.316;-6.294;2024-02-21T09:08:33;13.00;99.90
41720;DHT22;27405;53.316;-6.294;2024-02-21T09:11:02;13.00;99.90
41720;DHT22;27405;53.316;-6.294;2024-02-21T09:13:31;13.00;99.90
41720;DHT22;27405;53.316;-6.294;2024-02-21T09:16:01;13.00;99.90
41720;DHT22;27405;53.316;-6.294;2024-02-21T09:18:30;13.10;99.90
41720;DHT22;27405;53.316;-6.294;2024-02-21T09:20:55;13.10;99.90
41720;DHT22;27405;53.316;-6.294;2024-02-21T09:23:24;13.10;99.90
41720;DHT22;27405;53.316;-6.294;2024-02-21T09:25:50;13.10;99.90
41720;DHT22;27405;53.316;-6.294;2024-02-21T09:28:15;13.10;99.90
41720;DHT22;27405;53.316;-6.294;2024-02-21T09:30:41;13.10;99.90
41720;DHT22;27405;53.316;-6.294;2024-02-21T09:33:07;13.10;99.90
41720;DHT22;27405;53.316;-6.294;2024-02-21T09:35:32;13.20;99.90
41720;DHT22;27405;53.316;-6.294;2024-02-21T09:37:59;13.20;99.90
41720;DHT22;27405;53.316;-6.294;2024-02-21T09:40:25;13.20;99.90
41720;DHT22;27405;53.316;-6.294;2024-02-21T09:43:03;13.30;99.90
41720;DHT22;27405;53.316;-6.294;2024-02-21T09:45:30;13.30;99.90
41720;DHT22;27405;53.316;-6.294;2024-02-21T09:48:29;13.40;99.90
41720;DHT22;27405;53.316;-6.294;2024-02-21T09:50:57;13.40;99.90
41720;DHT22;27405;53.316;-6.294;2024-02-21T09:53:24;13.50;99.90
41720;DHT22;27405;53.316;-6.294;2024-02-21T09:55:50;13.50;99.90
41720;DHT22;27405;53.316;-6.294;2024-02-21T09:58:17;13.60;99.90
41720;DHT22;27405;53.316;-6.294;2024-02-21T10:00:42;13.60;99.90
41720;DHT22;27405;53.316;-6.294;2024-02-21T10:03:08;13.70;99.90
41720;DHT22;27405;53.316;-6.294;2024-02-21T10:05:37;13.70;99.90
41720;DHT22;27405;53.316;-6.294;2024-02-21T10:08:04;13.80;99.90
41720;DHT22;27405;53.316;-6.294;2024-02-21T10:10:40;13.80;99.90
41720;DHT22;27405;53.316;-6.294;2024-02-21T10:13:05;13.90;99.90
41720;DHT22;27405;53.316;-6.294;2024-02-21T10:15:31;13.90;99.90
41720;DHT22;27405;53.316;-6.294;2024-02-21T10:18:01;13.90;99.90
41720;DHT22;27405;53.316;-6.294;2024-02-21T10:20:29;13.90;99.90
41720;DHT22;27405;53.316;-6.294;2024-02-21T10:23:04;13.90;99.90
41720;DHT22;27405;53.316;-6.294;2024-02-21T10:25:36;13.90;99.90
41720;DHT22;27405;53.316;-6.294;2024-02-21T10:28:12;13.90;99.90
41720;DHT22;27405;53.316;-6.294;2024-02-21T10:30:38;13.90;99.90
41720;DHT22;27405;53.316;-6.294;2024-02-21T10:33:05;13.90;99.90
41720;DHT22;27405;53.316;-6.294;2024-02-21T10:35:32;14.10;99.90
41720;DHT22;27405;53.316;-6.294;2024-02-21T10:37:59;14.10;99.90
41720;DHT22;27405;53.316;-6.294;2024-02-21T10:40:28;14.30;99.90
41720;DHT22;27405;53.316;-6.294;2024-02-21T10:43:02;14.40;99.90
41720;DHT22;27405;53.316;-6.294;2024-02-21T10:45:34;14.40;99.90
41720;DHT22;27405;53.316;-6.294;2024-02-21T10:48:12;14.50;99.90
41720;DHT22;27405;53.316;-6.294;2024-02-21T10:50:57;14.50;99.90
41720;DHT22;27405;53.316;-6.294;2024-02-21T10:56:21;14.50;99.90
41720;DHT22;27405;53.316;-6.294;2024-02-21T10:58:49;14.50;99.90
41720;DHT22;27405;53.316;-6.294;2024-02-21T11:01:15;14.60;99.90
41720;DHT22;27405;53.316;-6.294;2024-02-21T11:03:45;14.50;99.90
41720;DHT22;27405;53.316;-6.294;2024-02-21T11:06:12;14.50;99.90
41720;DHT22;27405;53.316;-6.294;2024-02-21T11:08:38;14.50;99.90
41720;DHT22;27405;53.316;-6.294;2024-02-21T11:11:05;14.40;99.90
41720;DHT22;27405;53.316;-6.294;2024-02-21T11:13:37;14.40;99.90
41720;DHT22;27405;53.316;-6.294;2024-02-21T11:16:21;14.40;99.90
41720;DHT22;27405;53.316;-6.294;2024-02-21T11:18:47;14.50;99.90
41720;DHT22;27405;53.316;-6.294;2024-02-21T11:21:13;14.60;99.90
41720;DHT22;27405;53.316;-6.294;2024-02-21T11:23:38;14.70;99.90
41720;DHT22;27405;53.316;-6.294;2024-02-21T11:26:05;14.60;99.90
41720;DHT22;27405;53.316;-6.294;2024-02-21T11:28:31;14.70;99.90
41720;DHT22;27405;53.316;-6.294;2024-02-21T11:31:09;14.70;99.90
41720;DHT22;27405;53.316;-6.294;2024-02-21T11:33:35;14.60;99.90
41720;DHT22;27405;53.316;-6.294;2024-02-21T11:36:01;14.60;99.90
41720;DHT22;27405;53.316;-6.294;2024-02-21T11:38:29;14.60;99.90
41720;DHT22;27405;53.316;-6.294;2024-02-21T11:40:55;14.50;99.90
41720;DHT22;27405;53.316;-6.294;2024-02-21T11:43:21;14.50;99.90
41720;DHT22;27405;53.316;-6.294;2024-02-21T11:45:47;14.30;99.90
41720;DHT22;27405;53.316;-6.294;2024-02-21T11:48:12;14.20;99.90
41720;DHT22;27405;53.316;-6.294;2024-02-21T11:50:38;14.20;99.90
41720;DHT22;27405;53.316;-6.294;2024-02-21T11:53:05;14.10;99.90
41720;DHT22;27405;53.316;-6.294;2024-02-21T11:55:31;14.00;99.90
41720;DHT22;27405;53.316;-6.294;2024-02-21T11:57:56;14.00;99.90
41720;DHT22;27405;53.316;-6.294;2024-02-21T12:00:22;13.90;99.90
41720;DHT22;27405;53.316;-6.294;2024-02-21T12:02:52;13.80;99.90
41720;DHT22;27405;53.316;-6.294;2024-02-21T12:05:20;13.80;99.90
41720;DHT22;27405;53.316;-6.294;2024-02-21T12:07:46;13.70;99.90
41720;DHT22;27405;53.316;-6.294;2024-02-21T12:10:13;13.70;99.90
41720;DHT22;27405;53.316;-6.294;2024-02-21T12:12:39;13.70;99.90
41720;DHT22;27405;53.316;-6.294;2024-02-21T12:15:06;13.60;99.90
41720;DHT22;27405;53.316;-6.294;2024-02-21T12:17:36;13.60;99.90
41720;DHT22;27405;53.316;-6.294;2024-02-21T12:20:02;13.70;99.90
41720;DHT22;27405;53.316;-6.294;2024-02-21T12:22:31;13.90;99.90
41720;DHT22;27405;53.316;-6.294;2024-02-21T12:25:02;14.10;99.90
41720;DHT22;27405;53.316;-6.294;2024-02-21T12:27:28;14.30;99.90
41720;DHT22;27405;53.316;-6.294;2024-02-21T12:29:54;14.40;99.90
41720;DHT22;27405;53.316;-6.294;2024-02-21T12:32:19;14.50;99.90
41720;DHT22;27405;53.316;-6.294;2024-02-21T12:34:45;14.50;99.90
41720;DHT22;27405;53.316;-6.294;2024-02-21T12:37:11;14.40;99.90
41720;DHT22;27405;53.316;-6.294;2024-02-21T12:39:41;14.30;99.90
41720;DHT22;27405;53.316;-6.294;2024-02-21T12:42:07;14.20;99.90
41720;DHT22;27405;53.316;-6.294;2024-02-21T12:44:32;14.00;99.90
41720;DHT22;27405;53.316;-6.294;2024-02-21T12:47:05;13.80;99.90
41720;DHT22;27405;53.316;-6.294;2024-02-21T12:49:31;13.70;99.90
41720;DHT22;27405;53.316;-6.294;2024-02-21T12:51:57;13.70;99.90
41720;DHT22;27405;53.316;-6.294;2024-02-21T12:54:23;13.60;99.90
41720;DHT22;27405;53.316;-6.294;2024-02-21T12:56:49;13.60;99.90
41720;DHT22;27405;53.316;-6.294;2024-02-21T12:59:15;13.60;99.90
41720;DHT22;27405;53.316;-6.294;2024-02-21T13:01:41;13.60;99.90
41720;DHT22;27405;53.316;-6.294;2024-02-21T13:04:06;13.60;99.90
41720;DHT22;27405;53.316;-6.294;2024-02-21T13:06:32;13.70;99.90
41720;DHT22;27405;53.316;-6.294;2024-02-21T13:08:58;13.70;99.90
41720;DHT22;27405;53.316;-6.294;2024-02-21T13:11:24;13.80;99.90
41720;DHT22;27405;53.316;-6.294;2024-02-21T13:13:52;13.90;99.90
41720;DHT22;27405;53.316;-6.294;2024-02-21T13:16:18;14.10;99.90
41720;DHT22;27405;53.316;-6.294;2024-02-21T13:18:44;14.30;99.90
41720;DHT22;27405;53.316;-6.294;2024-02-21T13:21:12;14.40;99.90
41720;DHT22;27405;53.316;-6.294;2024-02-21T13:23:38;14.50;99.90
41720;DHT22;27405;53.316;-6.294;2024-02-21T13:26:04;14.50;99.90
41720;DHT22;27405;53.316;-6.294;2024-02-21T13:28:29;14.40;99.90
41720;DHT22;27405;53.316;-6.294;2024-02-21T13:30:55;14.40;99.90
41720;DHT22;27405;53.316;-6.294;2024-02-21T13:33:21;14.30;99.90
41720;DHT22;27405;53.316;-6.294;2024-02-21T13:35:46;14.30;99.90
41720;DHT22;27405;53.316;-6.294;2024-02-21T13:38:12;14.30;99.90
41720;DHT22;27405;53.316;-6.294;2024-02-21T13:40:38;14.20;99.90
41720;DHT22;27405;53.316;-6.294;2024-02-21T13:43:04;14.10;99.90
41720;DHT22;27405;53.316;-6.294;2024-02-21T13:45:30;14.20;99.90
41720;DHT22;27405;53.316;-6.294;2024-02-21T13:47:57;14.30;99.90
41720;DHT22;27405;53.316;-6.294;2024-02-21T13:50:30;14.40;99.90
41720;DHT22;27405;53.316;-6.294;2024-02-21T13:52:56;14.60;99.90
41720;DHT22;27405;53.316;-6.294;2024-02-21T13:55:22;14.70;99.90
41720;DHT22;27405;53.316;-6.294;2024-02-21T13:57:51;14.90;99.90
41720;DHT22;27405;53.316;-6.294;2024-02-21T14:00:17;14.90;99.90
41720;DHT22;27405;53.316;-6.294;2024-02-21T14:02:44;15.00;99.90
41720;DHT22;27405;53.316;-6.294;2024-02-21T14:05:10;14.90;99.90
41720;DHT22;27405;53.316;-6.294;2024-02-21T14:07:35;14.90;99.90
41720;DHT22;27405;53.316;-6.294;2024-02-21T14:10:01;14.80;99.90
41720;DHT22;27405;53.316;-6.294;2024-02-21T14:12:27;14.80;99.90
41720;DHT22;27405;53.316;-6.294;2024-02-21T14:14:52;14.70;99.90
41720;DHT22;27405;53.316;-6.294;2024-02-21T14:17:18;14.70;99.90
41720;DHT22;27405;53.316;-6.294;2024-02-21T14:19:45;14.60;99.90
41720;DHT22;27405;53.316;-6.294;2024-02-21T14:22:11;14.60;99.90
41720;DHT22;27405;53.316;-6.294;2024-02-21T14:24:37;14.60;99.90
41720;DHT22;27405;53.316;-6.294;2024-02-21T14:27:03;14.60;99.90
41720;DHT22;27405;53.316;-6.294;2024-02-21T14:29:29;14.60;99.90
41720;DHT22;27405;53.316;-6.294;2024-02-21T14:31:54;14.60;99.90
41720;DHT22;27405;53.316;-6.294;2024-02-21T14:34:20;14.60;99.90
41720;DHT22;27405;53.316;-6.294;2024-02-21T14:36:45;14.50;99.90
41720;DHT22;27405;53.316;-6.294;2024-02-21T14:39:13;14.40;99.90
41720;DHT22;27405;53.316;-6.294;2024-02-21T14:41:39;14.30;99.90
41720;DHT22;27405;53.316;-6.294;2024-02-21T14:44:05;14.10;99.90
41720;DHT22;27405;53.316;-6.294;2024-02-21T14:46:30;14.10;99.90
41720;DHT22;27405;53.316;-6.294;2024-02-21T14:48:56;14.00;99.90
41720;DHT22;27405;53.316;-6.294;2024-02-21T14:51:22;13.90;99.90
41720;DHT22;27405;53.316;-6.294;2024-02-21T14:53:47;14.00;99.90
41720;DHT22;27405;53.316;-6.294;2024-02-21T14:56:14;13.90;99.90
41720;DHT22;27405;53.316;-6.294;2024-02-21T14:58:41;13.90;99.90
41720;DHT22;27405;53.316;-6.294;2024-02-21T15:01:07;13.90;99.90
41720;DHT22;27405;53.316;-6.294;2024-02-21T15:03:33;13.80;99.90
41720;DHT22;27405;53.316;-6.294;2024-02-21T15:05:58;13.70;99.90
41720;DHT22;27405;53.316;-6.294;2024-02-21T15:08:26;13.60;99.90
41720;DHT22;27405;53.316;-6.294;2024-02-21T15:10:53;13.50;99.90
41720;DHT22;27405;53.316;-6.294;2024-02-21T15:13:20;13.30;99.90
41720;DHT22;27405;53.316;-6.294;2024-02-21T15:15:47;13.30;99.90
41720;DHT22;27405;53.316;-6.294;2024-02-21T15:18:14;13.30;99.90